createdAt,value
2022-10-05T00:00:02.605Z,11.60
2022-10-05T00:02:54.089Z,10.55
2022-10-05T00:05:31.623Z,8.15
2022-10-05T00:08:13.586Z,9.25
2022-10-05T00:10:44.109Z,7.80
2022-10-05T00:13:16.290Z,9.40
2022-10-05T00:15:46.302Z,8.10
2022-10-05T00:18:18.493Z,11.30
2022-10-05T00:20:48.966Z,7.07
2022-10-05T00:23:22.293Z,8.57
2022-10-05T00:25:52.696Z,11.90
2022-10-05T00:28:28.475Z,8.80
2022-10-05T00:30:58.972Z,6.32
2022-10-05T00:33:29.994Z,7.70
2022-10-05T00:35:59.539Z,6.20
2022-10-05T00:38:30.938Z,6.55
2022-10-05T00:41:08.571Z,4.32
2022-10-05T00:44:07.934Z,7.80
2022-10-05T00:46:51.627Z,11.15
2022-10-05T00:49:37.342Z,7.43
2022-10-05T00:52:20.654Z,7.72
2022-10-05T00:54:58.199Z,11.00
2022-10-05T00:57:42.958Z,6.45
2022-10-05T01:00:15.277Z,10.30
2022-10-05T01:02:55.669Z,12.50
2022-10-05T01:05:41.567Z,11.40
2022-10-05T01:08:24.094Z,11.63
2022-10-05T01:11:04.779Z,11.82
2022-10-05T01:13:44.034Z,11.50
2022-10-05T01:16:21.411Z,9.43
2022-10-05T01:18:56.865Z,11.63
2022-10-05T01:21:28.489Z,12.52
2022-10-05T01:24:44.920Z,12.98
2022-10-05T01:27:42.722Z,12.63
2022-10-05T01:30:15.559Z,8.93
2022-10-05T01:32:51.632Z,7.85
2022-10-05T01:35:32.069Z,10.75
2022-10-05T01:38:11.977Z,9.38
2022-10-05T01:40:50.726Z,8.98
2022-10-05T01:43:28.546Z,11.27
2022-10-05T01:46:03.737Z,9.88
2022-10-05T01:48:44.265Z,12.57
2022-10-05T01:51:20.641Z,8.80
2022-10-05T01:54:02.938Z,7.07
2022-10-05T01:56:41.270Z,11.55
2022-10-05T01:59:24.812Z,11.95
2022-10-05T02:02:02.992Z,10.10
2022-10-05T02:07:30.688Z,9.93
2022-10-05T02:10:04.323Z,8.00
2022-10-05T02:12:39.251Z,9.10
2022-10-05T02:15:16.522Z,11.68
2022-10-05T02:17:49.320Z,10.52
2022-10-05T02:20:25.114Z,9.25
2022-10-05T02:22:57.622Z,12.75
2022-10-05T02:25:32.179Z,9.20
2022-10-05T02:28:05.939Z,9.75
2022-10-05T02:30:43.179Z,10.88
2022-10-05T02:33:20.127Z,8.27
2022-10-05T02:35:49.654Z,8.90
2022-10-05T02:38:28.558Z,8.30
2022-10-05T02:41:06.330Z,14.40
2022-10-05T02:43:47.047Z,11.65
2022-10-05T02:46:26.261Z,11.17
2022-10-05T02:49:09.367Z,10.77
2022-10-05T02:51:49.087Z,15.82
2022-10-05T02:54:30.825Z,11.85
2022-10-05T02:57:04.066Z,13.45
2022-10-05T02:59:40.349Z,8.93
2022-10-05T03:02:19.369Z,8.90
2022-10-05T03:04:57.409Z,8.70
2022-10-05T03:07:33.587Z,11.05
2022-10-05T03:10:10.052Z,12.80
2022-10-05T03:12:49.963Z,10.07
2022-10-05T03:15:34.978Z,15.20
2022-10-05T03:18:15.918Z,9.88
2022-10-05T03:20:55.422Z,12.63
2022-10-05T03:23:36.806Z,7.93
2022-10-05T03:26:22.005Z,10.25
2022-10-05T03:29:00.434Z,11.48
2022-10-05T03:31:39.698Z,11.75
2022-10-05T03:34:17.014Z,10.57
2022-10-05T03:36:54.384Z,8.85
2022-10-05T03:39:29.589Z,9.88
2022-10-05T03:42:10.033Z,12.45
2022-10-05T03:44:46.032Z,12.35
2022-10-05T03:47:27.556Z,12.90
2022-10-05T03:52:47.249Z,12.35
2022-10-05T03:55:24.350Z,16.60
2022-10-05T03:57:58.170Z,11.00
2022-10-05T04:00:28.401Z,14.02
2022-10-05T04:03:04.266Z,8.75
2022-10-05T04:05:39.854Z,10.82
2022-10-05T04:08:14.659Z,9.90
2022-10-05T04:10:47.182Z,9.10
2022-10-05T04:13:23.442Z,12.63
2022-10-05T04:16:00.571Z,9.80
2022-10-05T04:18:35.490Z,11.68
2022-10-05T04:21:09.715Z,14.15
2022-10-05T04:23:48.292Z,8.88
2022-10-05T04:26:24.073Z,10.90
2022-10-05T04:28:59.944Z,7.50
2022-10-05T04:31:47.328Z,9.45
2022-10-05T04:34:32.290Z,6.68
2022-10-05T04:37:08.190Z,5.32
2022-10-05T04:39:47.369Z,12.75
2022-10-05T04:42:26.070Z,11.25
2022-10-05T04:45:12.018Z,10.02
2022-10-05T04:48:12.988Z,10.13
2022-10-05T04:50:52.169Z,10.90
2022-10-05T04:53:32.982Z,9.82
2022-10-05T04:56:11.260Z,7.65
2022-10-05T04:58:58.102Z,9.85
2022-10-05T05:01:42.405Z,5.80
2022-10-05T05:04:29.572Z,7.93
2022-10-05T05:07:07.684Z,11.63
2022-10-05T05:10:13.971Z,11.65
2022-10-05T05:12:55.307Z,14.20
2022-10-05T05:15:39.533Z,12.93
2022-10-05T05:18:34.833Z,8.13
2022-10-05T05:21:15.450Z,8.27
2022-10-05T05:23:52.197Z,11.27
2022-10-05T05:26:32.772Z,7.70
2022-10-05T05:29:16.178Z,9.70
2022-10-05T05:31:50.488Z,11.35
2022-10-05T05:34:40.180Z,11.15
2022-10-05T05:37:17.110Z,10.88
2022-10-05T05:39:57.348Z,15.27
2022-10-05T05:42:39.767Z,6.13
2022-10-05T05:45:18.412Z,9.27
2022-10-05T05:47:54.234Z,7.88
2022-10-05T05:50:35.411Z,11.90
2022-10-05T05:53:12.443Z,12.02
2022-10-05T05:55:47.854Z,16.33
2022-10-05T05:58:25.729Z,10.40
2022-10-05T06:01:00.484Z,9.73
2022-10-05T06:03:36.860Z,9.32
2022-10-05T06:06:11.556Z,7.55
2022-10-05T06:08:45.173Z,13.27
2022-10-05T06:11:19.424Z,9.20
2022-10-05T06:13:50.716Z,6.40
2022-10-05T06:16:25.128Z,11.13
2022-10-05T06:18:57.955Z,10.88
2022-10-05T06:21:34.078Z,7.97
2022-10-05T06:24:07.213Z,8.60
2022-10-05T06:27:02.284Z,8.13
2022-10-05T06:29:49.945Z,15.10
2022-10-05T06:32:28.754Z,12.93
2022-10-05T06:35:12.505Z,9.57
2022-10-05T06:38:12.550Z,12.10
2022-10-05T06:40:54.993Z,10.88
2022-10-05T06:43:38.542Z,8.77
2022-10-05T06:46:13.518Z,11.02
2022-10-05T06:48:54.955Z,15.52
2022-10-05T06:51:33.500Z,11.75
2022-10-05T06:54:11.685Z,14.02
2022-10-05T06:56:47.181Z,10.10
2022-10-05T06:59:24.959Z,10.30
2022-10-05T07:02:06.903Z,11.23
2022-10-05T07:04:52.673Z,7.65
2022-10-05T07:07:32.300Z,8.75
2022-10-05T07:10:18.710Z,10.70
2022-10-05T07:13:01.693Z,6.45
2022-10-05T07:15:42.222Z,12.45
2022-10-05T07:18:38.371Z,7.80
2022-10-05T07:21:15.001Z,9.48
2022-10-05T07:23:54.551Z,16.25
2022-10-05T07:26:31.960Z,8.00
2022-10-05T07:29:20.960Z,10.15
2022-10-05T07:31:58.881Z,9.38
2022-10-05T07:34:42.216Z,9.20
2022-10-05T07:37:31.933Z,14.13
2022-10-05T07:40:10.413Z,10.60
2022-10-05T07:42:56.743Z,10.60
2022-10-05T07:45:31.125Z,9.32
2022-10-05T07:48:07.791Z,7.95
2022-10-05T07:50:45.593Z,10.90
2022-10-05T07:53:21.422Z,12.20
2022-10-05T07:55:54.077Z,13.50
2022-10-05T07:58:29.276Z,10.77
2022-10-05T08:01:05.878Z,8.15
2022-10-05T08:03:46.977Z,7.07
2022-10-05T08:06:32.213Z,12.27
2022-10-05T08:09:08.661Z,17.58
2022-10-05T08:11:47.470Z,17.95
2022-10-05T08:14:26.026Z,10.52
2022-10-05T08:16:59.689Z,9.68
2022-10-05T08:19:39.145Z,7.68
2022-10-05T08:22:14.406Z,9.20
2022-10-05T08:24:50.747Z,13.52
2022-10-05T08:27:25.148Z,8.05
2022-10-05T08:30:00.614Z,10.55
2022-10-05T08:32:35.229Z,13.15
2022-10-05T08:35:18.126Z,9.38
2022-10-05T08:37:50.553Z,9.80
2022-10-05T08:41:05.059Z,12.38
2022-10-05T08:44:04.044Z,5.93
2022-10-05T08:46:53.500Z,11.75
2022-10-05T08:50:04.772Z,10.15
2022-10-05T08:52:39.990Z,6.20
2022-10-05T08:55:40.249Z,9.95
2022-10-05T09:00:59.592Z,12.23
2022-10-05T09:04:04.097Z,11.00
2022-10-05T09:07:25.214Z,8.23
2022-10-05T09:10:39.067Z,10.25
2022-10-05T09:13:31.921Z,9.27
2022-10-05T09:16:33.438Z,9.90
2022-10-05T09:19:59.384Z,13.43
2022-10-05T09:22:47.921Z,8.98
2022-10-05T09:25:24.485Z,7.63
2022-10-05T09:27:58.716Z,9.85
2022-10-05T09:30:41.486Z,5.38
2022-10-05T09:33:30.734Z,10.15
2022-10-05T09:36:24.424Z,9.20
2022-10-05T09:39:26.257Z,7.55
2022-10-05T09:42:31.858Z,9.52
2022-10-05T09:45:33.973Z,7.97
2022-10-05T09:48:35.406Z,8.20
2022-10-05T09:51:24.324Z,8.65
2022-10-05T09:54:30.610Z,16.63
2022-10-05T09:57:20.486Z,8.43
2022-10-05T10:00:17.439Z,8.18
2022-10-05T10:03:18.453Z,8.32
2022-10-05T10:06:13.055Z,11.00
2022-10-05T10:08:58.296Z,6.50
2022-10-05T10:11:54.674Z,11.48
2022-10-05T10:14:57.244Z,6.75
2022-10-05T10:17:48.992Z,6.97
2022-10-05T10:20:37.293Z,9.20
2022-10-05T10:23:21.821Z,7.25
2022-10-05T10:26:20.944Z,5.78
2022-10-05T10:29:21.416Z,8.23
2022-10-05T10:32:10.500Z,7.32
2022-10-05T10:35:09.511Z,9.60
2022-10-05T10:38:00.518Z,10.05
2022-10-05T10:40:39.388Z,9.73
2022-10-05T10:43:36.749Z,6.15
2022-10-05T10:46:20.596Z,11.90
2022-10-05T10:49:11.029Z,7.00
2022-10-05T10:52:09.379Z,11.95
2022-10-05T10:55:12.100Z,10.00
2022-10-05T10:57:52.680Z,8.05
2022-10-05T11:03:30.297Z,10.75
2022-10-05T11:06:39.408Z,7.43
2022-10-05T11:09:31.537Z,8.50
2022-10-05T11:12:46.282Z,7.43
2022-10-05T11:15:40.841Z,12.18
2022-10-05T11:18:20.729Z,8.52
2022-10-05T11:21:11.756Z,12.20
2022-10-05T11:24:15.027Z,7.90
2022-10-05T11:26:58.479Z,9.25
2022-10-05T11:30:04.483Z,8.05
2022-10-05T11:33:12.268Z,6.68
2022-10-05T11:36:11.769Z,5.97
2022-10-05T11:39:16.058Z,11.13
2022-10-05T11:42:34.524Z,4.95
2022-10-05T11:45:26.377Z,8.43
2022-10-05T11:48:32.064Z,8.27
2022-10-05T11:51:28.725Z,14.43
2022-10-05T11:54:19.241Z,8.98
2022-10-05T11:56:55.159Z,8.68
2022-10-05T11:59:32.149Z,10.13
2022-10-05T12:02:16.122Z,9.15
2022-10-05T12:04:53.738Z,5.60
2022-10-05T12:07:31.097Z,10.95
2022-10-05T12:10:17.610Z,11.57
2022-10-05T12:13:08.858Z,7.80
2022-10-05T12:15:48.392Z,5.20
2022-10-05T12:18:25.584Z,10.23
2022-10-05T12:20:59.916Z,12.18
2022-10-05T12:23:38.291Z,10.77
2022-10-05T12:26:13.669Z,6.72
2022-10-05T12:28:48.583Z,8.20
2022-10-05T12:31:35.128Z,7.38
2022-10-05T12:34:15.250Z,9.23
2022-10-05T12:37:04.127Z,8.70
2022-10-05T12:39:43.757Z,8.73
2022-10-05T12:42:24.378Z,4.35
2022-10-05T12:45:10.394Z,12.40
2022-10-05T12:47:54.675Z,9.88
2022-10-05T12:50:29.963Z,11.50
2022-10-05T12:53:23.822Z,8.38
2022-10-05T12:56:05.665Z,12.93
2022-10-05T12:58:47.888Z,14.05
2022-10-05T13:01:28.024Z,11.18
2022-10-05T13:04:06.154Z,7.35
2022-10-05T13:06:44.113Z,8.80
2022-10-05T13:09:18.689Z,7.50
2022-10-05T13:11:51.233Z,7.22
2022-10-05T13:14:44.868Z,9.82
2022-10-05T13:17:20.592Z,7.60
2022-10-05T13:19:57.586Z,10.70
2022-10-05T13:22:36.097Z,9.52
2022-10-05T13:25:28.825Z,10.48
2022-10-05T13:28:19.866Z,9.40
2022-10-05T13:31:02.575Z,9.90
2022-10-05T13:33:50.093Z,14.30
2022-10-05T13:36:27.307Z,9.35
2022-10-05T13:39:03.981Z,8.63
2022-10-05T13:41:44.324Z,6.97
2022-10-05T13:44:24.318Z,7.82
2022-10-05T13:49:38.630Z,8.00
2022-10-05T13:52:21.577Z,11.02
2022-10-05T13:54:59.513Z,8.90
2022-10-05T13:57:46.519Z,8.85
2022-10-05T14:00:25.620Z,9.25
2022-10-05T14:02:57.811Z,10.73
2022-10-05T14:05:28.995Z,10.65
2022-10-05T14:08:17.569Z,7.25
2022-10-05T14:10:49.335Z,7.93
2022-10-05T14:13:26.867Z,8.68
2022-10-05T14:16:16.524Z,13.15
2022-10-05T14:18:55.749Z,8.10
2022-10-05T14:21:26.778Z,12.18
2022-10-05T14:23:57.556Z,8.35
2022-10-05T14:26:37.116Z,10.45
2022-10-05T14:29:19.613Z,8.70
2022-10-05T14:31:55.954Z,9.75
2022-10-05T14:34:32.161Z,8.07
2022-10-05T14:37:05.058Z,7.97
2022-10-05T14:39:42.078Z,9.52
2022-10-05T14:42:21.790Z,6.05
2022-10-05T14:45:01.071Z,6.28
2022-10-05T14:47:34.578Z,8.80
2022-10-05T14:50:18.077Z,9.63
2022-10-05T14:53:01.247Z,12.57
2022-10-05T14:55:46.649Z,11.38
2022-10-05T14:58:43.269Z,7.00
2022-10-05T15:01:24.338Z,5.53
2022-10-05T15:04:02.847Z,5.80
2022-10-05T15:06:38.862Z,9.63
2022-10-05T15:09:38.535Z,8.55
2022-10-05T15:12:08.973Z,10.17
2022-10-05T15:14:43.517Z,8.18
2022-10-05T15:17:18.447Z,9.10
2022-10-05T15:19:57.283Z,17.02
2022-10-05T15:22:32.589Z,9.43
2022-10-05T15:25:11.706Z,7.55
2022-10-05T15:28:01.975Z,6.90
2022-10-05T15:30:35.834Z,8.90
2022-10-05T15:33:13.473Z,8.90
2022-10-05T15:35:50.594Z,9.10
2022-10-05T15:38:25.754Z,7.35
2022-10-05T15:41:03.932Z,11.38
2022-10-05T15:43:51.462Z,8.43
2022-10-05T15:46:34.503Z,16.58
2022-10-05T15:49:16.789Z,12.70
2022-10-05T15:51:57.037Z,11.90
2022-10-05T15:55:01.944Z,6.30
2022-10-05T15:57:40.407Z,9.82
2022-10-05T16:00:14.248Z,9.48
2022-10-05T16:02:50.073Z,14.20
2022-10-05T16:05:51.346Z,9.90
2022-10-05T16:08:54.419Z,9.57
2022-10-05T16:11:38.156Z,17.17
2022-10-05T16:14:18.785Z,14.55
2022-10-05T16:16:59.426Z,11.00
2022-10-05T16:19:37.449Z,17.60
2022-10-05T16:22:17.564Z,15.70
2022-10-05T16:25:03.922Z,13.10
2022-10-05T16:27:45.158Z,12.05
2022-10-05T16:32:52.743Z,17.58
2022-10-05T16:35:30.698Z,17.45
2022-10-05T16:38:08.886Z,13.82
2022-10-05T16:40:45.821Z,17.27
2022-10-05T16:43:27.619Z,18.98
2022-10-05T16:46:09.953Z,13.27
2022-10-05T16:48:48.999Z,18.52
2022-10-05T16:51:29.202Z,17.23
2022-10-05T16:56:38.351Z,17.17
2022-10-05T16:59:28.453Z,18.45
2022-10-05T17:02:08.254Z,22.38
2022-10-05T17:04:46.669Z,18.95
2022-10-05T17:07:36.080Z,15.48
2022-10-05T17:10:37.406Z,25.42
2022-10-05T17:15:57.152Z,19.50
2022-10-05T17:18:51.901Z,21.65
2022-10-05T17:21:28.638Z,17.40
2022-10-05T17:24:07.546Z,17.35
2022-10-05T17:26:57.426Z,17.85
2022-10-05T17:29:33.577Z,18.20
2022-10-05T17:32:11.654Z,14.93
2022-10-05T17:35:02.098Z,21.63
2022-10-05T17:37:37.234Z,15.23
2022-10-05T17:40:34.247Z,16.98
2022-10-05T17:43:24.792Z,13.90
2022-10-05T17:46:00.792Z,15.35
2022-10-05T17:48:55.805Z,20.95
2022-10-05T17:52:17.217Z,15.30
2022-10-05T17:55:28.500Z,13.90
2022-10-05T17:58:02.312Z,17.67
2022-10-05T18:00:40.536Z,17.25
2022-10-05T18:03:36.454Z,15.27
2022-10-05T18:06:33.604Z,16.60
2022-10-05T18:09:34.223Z,20.15
2022-10-05T18:12:39.225Z,19.63
2022-10-05T18:15:48.896Z,21.50
2022-10-05T18:18:57.684Z,21.25
2022-10-05T18:22:00.900Z,19.70
2022-10-05T18:24:56.060Z,24.85
2022-10-05T18:27:50.657Z,19.67
2022-10-05T18:30:23.705Z,17.65
2022-10-05T18:33:28.390Z,25.20
2022-10-05T18:36:07.417Z,28.27
2022-10-05T18:38:53.257Z,27.05
2022-10-05T18:41:33.608Z,20.70
2022-10-05T18:44:20.710Z,25.02
2022-10-05T18:47:01.137Z,25.17
2022-10-05T18:49:44.249Z,20.58
2022-10-05T18:52:24.005Z,20.67
2022-10-05T18:55:04.290Z,22.35
2022-10-05T18:57:59.405Z,19.02
2022-10-05T19:00:43.765Z,23.85
2022-10-05T19:03:21.234Z,23.02
2022-10-05T19:05:59.727Z,19.73
2022-10-05T19:08:40.541Z,26.17
2022-10-05T19:11:21.492Z,21.23
2022-10-05T19:14:00.995Z,23.88
2022-10-05T19:16:54.516Z,24.98
2022-10-05T19:19:54.366Z,19.42
2022-10-05T19:22:35.630Z,21.13
2022-10-05T19:25:22.682Z,22.27
2022-10-05T19:28:01.675Z,30.50
2022-10-05T19:30:45.819Z,21.10
2022-10-05T19:33:44.962Z,24.52
2022-10-05T19:36:46.458Z,19.95
2022-10-05T19:39:23.227Z,25.48
2022-10-05T19:42:14.984Z,27.13
2022-10-05T19:44:57.015Z,20.50
2022-10-05T19:47:41.114Z,21.35
2022-10-05T19:50:26.921Z,25.50
2022-10-05T19:53:08.480Z,22.02
2022-10-05T19:55:41.991Z,26.40
2022-10-05T19:58:25.011Z,24.45
2022-10-05T20:00:57.647Z,26.02
2022-10-05T20:03:29.790Z,28.95
2022-10-05T20:06:00.908Z,26.50
2022-10-05T20:08:39.712Z,26.13
2022-10-05T20:11:14.470Z,24.75
2022-10-05T20:13:47.709Z,25.30
2022-10-05T20:16:48.318Z,24.33
2022-10-05T20:19:49.763Z,27.17
2022-10-05T20:22:31.816Z,30.17
2022-10-05T20:25:03.131Z,26.42
2022-10-05T20:27:46.936Z,29.35
2022-10-05T20:30:19.930Z,26.77
2022-10-05T20:32:49.781Z,22.60
2022-10-05T20:35:22.144Z,27.63
2022-10-05T20:37:51.677Z,24.10
2022-10-05T20:40:21.855Z,25.02
2022-10-05T20:42:51.918Z,29.10
2022-10-05T20:45:23.643Z,29.98
2022-10-05T20:47:53.044Z,27.77
2022-10-05T20:50:23.496Z,27.65
2022-10-05T20:52:53.313Z,29.90
2022-10-05T20:55:22.702Z,33.38
2022-10-05T20:57:52.240Z,33.00
2022-10-05T21:00:23.093Z,25.42
2022-10-05T21:02:53.021Z,23.98
2022-10-05T21:05:22.439Z,26.05
2022-10-05T21:07:51.804Z,27.75
2022-10-05T21:10:21.558Z,34.25
2022-10-05T21:12:50.937Z,27.13
2022-10-05T21:15:23.613Z,25.88
2022-10-05T21:17:56.973Z,27.95
2022-10-05T21:20:26.403Z,24.90
2022-10-05T21:22:56.565Z,26.90
2022-10-05T21:25:25.916Z,23.58
2022-10-05T21:27:55.443Z,24.20
2022-10-05T21:30:25.365Z,25.60
2022-10-05T21:32:56.228Z,24.58
2022-10-05T21:35:26.271Z,21.10
2022-10-05T21:37:55.762Z,23.80
2022-10-05T21:40:25.740Z,26.67
2022-10-05T21:42:55.610Z,22.85
2022-10-05T21:45:28.905Z,22.17
2022-10-05T21:48:03.183Z,23.13
2022-10-05T21:50:37.003Z,22.90
2022-10-05T21:53:13.021Z,22.50
2022-10-05T21:55:49.775Z,20.70
2022-10-05T21:58:23.808Z,23.08
2022-10-05T22:00:53.573Z,20.73
2022-10-05T22:03:24.980Z,19.60
2022-10-05T22:05:54.447Z,23.13
2022-10-05T22:08:30.278Z,17.93
2022-10-05T22:11:00.545Z,18.13
2022-10-05T22:13:43.277Z,17.70
2022-10-05T22:16:13.286Z,19.17
2022-10-05T22:18:45.304Z,16.27
2022-10-05T22:21:16.247Z,22.13
2022-10-05T22:23:47.730Z,19.67
2022-10-05T22:26:19.585Z,15.38
2022-10-05T22:28:49.926Z,18.75
2022-10-05T22:31:21.050Z,17.83
2022-10-05T22:33:52.478Z,16.80
2022-10-05T22:36:22.444Z,16.45
2022-10-05T22:38:52.431Z,14.48
2022-10-05T22:41:22.857Z,16.85
2022-10-05T22:43:53.038Z,14.88
2022-10-05T22:46:22.829Z,18.10
2022-10-05T22:48:53.823Z,18.63
2022-10-05T22:51:23.889Z,16.05
2022-10-05T22:53:53.503Z,17.70
2022-10-05T22:56:22.872Z,15.23
2022-10-05T22:58:52.924Z,15.38
2022-10-05T23:01:22.546Z,10.80
2022-10-05T23:03:54.175Z,10.48
2022-10-05T23:06:24.362Z,11.00
2022-10-05T23:08:53.988Z,11.70
2022-10-05T23:11:26.121Z,17.85
2022-10-05T23:13:57.340Z,10.05
2022-10-05T23:16:28.937Z,12.75
2022-10-05T23:19:00.879Z,14.57
2022-10-05T23:21:32.146Z,11.60
2022-10-05T23:24:02.306Z,10.77
2022-10-05T23:26:33.111Z,15.70
2022-10-05T23:29:02.770Z,11.32
2022-10-05T23:31:33.829Z,15.07
2022-10-05T23:34:05.054Z,11.82
2022-10-05T23:36:34.474Z,10.13
2022-10-05T23:39:03.910Z,14.82
2022-10-05T23:41:34.758Z,11.38
2022-10-05T23:44:04.142Z,11.75
2022-10-05T23:46:33.455Z,22.25
2022-10-05T23:49:04.681Z,11.35
2022-10-05T23:54:03.234Z,10.57
2022-10-05T23:56:33.158Z,11.90
2022-10-05T23:59:02.553Z,11.88
